sensor_id;sensor_type;location;lat;lon;timestamp;temperature;humidity
35970;DHT22;22448;51.298;6.430;2023-08-24T00:04:58;18.10;99.90
35970;DHT22;22448;51.298;6.430;2023-08-24T00:07:28;18.10;99.90
35970;DHT22;22448;51.298;6.430;2023-08-24T00:09:55;18.10;99.90
35970;DHT22;22448;51.298;6.430;2023-08-24T00:12:22;18.10;99.90
35970;DHT22;22448;51.298;6.430;2023-08-24T00:14:50;18.00;99.90
35970;DHT22;22448;51.298;6.430;2023-08-24T00:17:17;18.00;99.90
35970;DHT22;22448;51.298;6.430;2023-08-24T00:19:45;18.00;99.90
35970;DHT22;22448;51.298;6.430;2023-08-24T00:22:13;17.90;99.90
35970;DHT22;22448;51.298;6.430;2023-08-24T00:24:40;17.90;99.90
35970;DHT22;22448;51.298;6.430;2023-08-24T00:27:07;17.80;99.90
35970;DHT22;22448;51.298;6.430;2023-08-24T00:29:34;17.80;99.90
35970;DHT22;22448;51.298;6.430;2023-08-24T00:32:01;17.70;99.90
35970;DHT22;22448;51.298;6.430;2023-08-24T00:34:28;17.70;99.90
35970;DHT22;22448;51.298;6.430;2023-08-24T00:36:55;17.70;99.90
35970;DHT22;22448;51.298;6.430;2023-08-24T00:39:22;17.60;99.90
35970;DHT22;22448;51.298;6.430;2023-08-24T00:41:49;17.60;99.90
35970;DHT22;22448;51.298;6.430;2023-08-24T00:44:17;17.50;99.90
35970;DHT22;22448;51.298;6.430;2023-08-24T00:46:45;17.50;99.90
35970;DHT22;22448;51.298;6.430;2023-08-24T00:49:13;17.50;99.90
35970;DHT22;22448;51.298;6.430;2023-08-24T00:51:40;17.40;99.90
35970;DHT22;22448;51.298;6.430;2023-08-24T00:54:07;17.40;99.90
35970;DHT22;22448;51.298;6.430;2023-08-24T00:56:34;17.40;99.90
35970;DHT22;22448;51.298;6.430;2023-08-24T00:59:02;17.30;99.90
35970;DHT22;22448;51.298;6.430;2023-08-24T01:01:29;17.30;99.90
35970;DHT22;22448;51.298;6.430;2023-08-24T01:03:58;17.20;99.90
35970;DHT22;22448;51.298;6.430;2023-08-24T01:06:27;17.20;99.90
35970;DHT22;22448;51.298;6.430;2023-08-24T01:08:54;17.20;99.90
35970;DHT22;22448;51.298;6.430;2023-08-24T01:11:37;17.20;99.90
35970;DHT22;22448;51.298;6.430;2023-08-24T01:14:30;17.10;99.90
35970;DHT22;22448;51.298;6.430;2023-08-24T01:17:04;17.10;99.90
35970;DHT22;22448;51.298;6.430;2023-08-24T01:19:40;17.10;99.90
35970;DHT22;22448;51.298;6.430;2023-08-24T01:22:30;17.10;99.90
35970;DHT22;22448;51.298;6.430;2023-08-24T01:25:17;17.00;99.90
35970;DHT22;22448;51.298;6.430;2023-08-24T01:27:48;17.00;99.90
35970;DHT22;22448;51.298;6.430;2023-08-24T01:30:18;17.00;99.90
35970;DHT22;22448;51.298;6.430;2023-08-24T01:32:46;17.00;99.90
35970;DHT22;22448;51.298;6.430;2023-08-24T01:35:13;17.00;99.90
35970;DHT22;22448;51.298;6.430;2023-08-24T01:37:40;16.90;99.90
35970;DHT22;22448;51.298;6.430;2023-08-24T01:40:20;16.90;99.90
35970;DHT22;22448;51.298;6.430;2023-08-24T01:42:59;16.90;99.90
35970;DHT22;22448;51.298;6.430;2023-08-24T01:45:31;16.80;99.90
35970;DHT22;22448;51.298;6.430;2023-08-24T01:48:02;16.80;99.90
35970;DHT22;22448;51.298;6.430;2023-08-24T01:50:30;16.80;99.90
35970;DHT22;22448;51.298;6.430;2023-08-24T01:52:58;16.80;99.90
35970;DHT22;22448;51.298;6.430;2023-08-24T01:55:25;16.70;99.90
35970;DHT22;22448;51.298;6.430;2023-08-24T01:57:54;16.70;99.90
35970;DHT22;22448;51.298;6.430;2023-08-24T02:00:21;16.70;99.90
35970;DHT22;22448;51.298;6.430;2023-08-24T02:02:48;16.70;99.90
35970;DHT22;22448;51.298;6.430;2023-08-24T02:05:16;16.60;99.90
35970;DHT22;22448;51.298;6.430;2023-08-24T02:07:49;16.60;99.90
35970;DHT22;22448;51.298;6.430;2023-08-24T02:10:16;16.60;99.90
35970;DHT22;22448;51.298;6.430;2023-08-24T02:12:43;16.60;99.90
35970;DHT22;22448;51.298;6.430;2023-08-24T02:15:10;16.60;99.90
35970;DHT22;22448;51.298;6.430;2023-08-24T02:17:37;16.70;99.90
35970;DHT22;22448;51.298;6.430;2023-08-24T02:20:06;16.60;99.90
35970;DHT22;22448;51.298;6.430;2023-08-24T02:22:35;16.60;99.90
35970;DHT22;22448;51.298;6.430;2023-08-24T02:25:02;16.60;99.90
35970;DHT22;22448;51.298;6.430;2023-08-24T02:27:32;16.60;99.90
35970;DHT22;22448;51.298;6.430;2023-08-24T02:29:59;16.60;99.90
35970;DHT22;22448;51.298;6.430;2023-08-24T02:32:28;16.70;99.90
35970;DHT22;22448;51.298;6.430;2023-08-24T02:34:57;16.70;99.90
35970;DHT22;22448;51.298;6.430;2023-08-24T02:37:24;16.80;99.90
35970;DHT22;22448;51.298;6.430;2023-08-24T02:39:51;16.80;99.90
35970;DHT22;22448;51.298;6.430;2023-08-24T02:42:18;16.80;99.90
35970;DHT22;22448;51.298;6.430;2023-08-24T02:44:45;16.80;99.90
35970;DHT22;22448;51.298;6.430;2023-08-24T02:47:12;16.90;99.90
35970;DHT22;22448;51.298;6.430;2023-08-24T02:49:39;16.90;99.90
35970;DHT22;22448;51.298;6.430;2023-08-24T02:52:06;17.00;99.90
35970;DHT22;22448;51.298;6.430;2023-08-24T02:54:35;17.00;99.90
35970;DHT22;22448;51.298;6.430;2023-08-24T02:57:02;17.00;99.90
35970;DHT22;22448;51.298;6.430;2023-08-24T02:59:29;17.00;99.90
35970;DHT22;22448;51.298;6.430;2023-08-24T03:01:56;17.00;99.90
35970;DHT22;22448;51.298;6.430;2023-08-24T03:04:25;17.10;99.90
35970;DHT22;22448;51.298;6.430;2023-08-24T03:06:52;17.10;99.90
35970;DHT22;22448;51.298;6.430;2023-08-24T03:09:19;17.10;99.90
35970;DHT22;22448;51.298;6.430;2023-08-24T03:11:46;17.10;99.90
35970;DHT22;22448;51.298;6.430;2023-08-24T03:14:13;17.20;99.90
35970;DHT22;22448;51.298;6.430;2023-08-24T03:16:40;17.10;99.90
35970;DHT22;22448;51.298;6.430;2023-08-24T03:19:07;17.10;99.90
35970;DHT22;22448;51.298;6.430;2023-08-24T03:21:34;17.20;99.90
35970;DHT22;22448;51.298;6.430;2023-08-24T03:24:01;17.20;99.90
35970;DHT22;22448;51.298;6.430;2023-08-24T03:26:31;17.20;99.90
35970;DHT22;22448;51.298;6.430;2023-08-24T03:28:58;17.20;99.90
35970;DHT22;22448;51.298;6.430;2023-08-24T03:31:26;17.20;99.90
35970;DHT22;22448;51.298;6.430;2023-08-24T03:33:53;17.20;99.90
35970;DHT22;22448;51.298;6.430;2023-08-24T03:36:21;17.20;99.90
35970;DHT22;22448;51.298;6.430;2023-08-24T03:38:48;17.20;99.90
35970;DHT22;22448;51.298;6.430;2023-08-24T03:41:15;17.20;99.90
35970;DHT22;22448;51.298;6.430;2023-08-24T03:43:42;17.20;99.90
35970;DHT22;22448;51.298;6.430;2023-08-24T03:46:09;17.20;99.90
35970;DHT22;22448;51.298;6.430;2023-08-24T03:48:40;17.20;99.90
35970;DHT22;22448;51.298;6.430;2023-08-24T03:51:07;17.20;99.90
35970;DHT22;22448;51.298;6.430;2023-08-24T03:53:35;17.20;99.90
35970;DHT22;22448;51.298;6.430;2023-08-24T03:56:03;17.20;99.90
35970;DHT22;22448;51.298;6.430;2023-08-24T03:58:31;17.20;99.90
35970;DHT22;22448;51.298;6.430;2023-08-24T04:00:59;17.10;99.90
35970;DHT22;22448;51.298;6.430;2023-08-24T04:03:26;17.20;99.90
35970;DHT22;22448;51.298;6.430;2023-08-24T04:05:53;17.10;99.90
35970;DHT22;22448;51.298;6.430;2023-08-24T04:08:20;17.10;99.90
35970;DHT22;22448;51.298;6.430;2023-08-24T04:10:48;17.10;99.90
35970;DHT22;22448;51.298;6.430;2023-08-24T04:13:16;17.10;99.90
35970;DHT22;22448;51.298;6.430;2023-08-24T04:15:43;17.20;99.90
35970;DHT22;22448;51.298;6.430;2023-08-24T04:18:10;17.20;99.90
35970;DHT22;22448;51.298;6.430;2023-08-24T04:20:38;17.20;99.90
35970;DHT22;22448;51.298;6.430;2023-08-24T04:23:05;17.10;99.90
35970;DHT22;22448;51.298;6.430;2023-08-24T04:25:34;17.10;99.90
35970;DHT22;22448;51.298;6.430;2023-08-24T04:28:01;17.10;99.90
35970;DHT22;22448;51.298;6.430;2023-08-24T04:30:27;17.10;99.90
35970;DHT22;22448;51.298;6.430;2023-08-24T04:32:55;17.10;99.90
35970;DHT22;22448;51.298;6.430;2023-08-24T04:35:25;17.10;99.90
35970;DHT22;22448;51.298;6.430;2023-08-24T04:37:53;17.10;99.90
35970;DHT22;22448;51.298;6.430;2023-08-24T04:40:20;17.10;99.90
35970;DHT22;22448;51.298;6.430;2023-08-24T04:42:47;17.00;99.90
35970;DHT22;22448;51.298;6.430;2023-08-24T04:45:14;17.10;99.90
35970;DHT22;22448;51.298;6.430;2023-08-24T04:47:41;17.10;99.90
35970;DHT22;22448;51.298;6.430;2023-08-24T04:50:09;17.10;99.90
35970;DHT22;22448;51.298;6.430;2023-08-24T04:52:36;17.10;99.90
35970;DHT22;22448;51.298;6.430;2023-08-24T04:55:03;17.10;99.90
35970;DHT22;22448;51.298;6.430;2023-08-24T04:57:30;17.10;99.90
35970;DHT22;22448;51.298;6.430;2023-08-24T04:59:57;17.20;99.90
35970;DHT22;22448;51.298;6.430;2023-08-24T05:02:24;17.20;99.90
35970;DHT22;22448;51.298;6.430;2023-08-24T05:04:52;17.20;99.90
35970;DHT22;22448;51.298;6.430;2023-08-24T05:07:19;17.20;99.90
35970;DHT22;22448;51.298;6.430;2023-08-24T05:09:46;17.20;99.90
35970;DHT22;22448;51.298;6.430;2023-08-24T05:12:13;17.20;99.90
35970;DHT22;22448;51.298;6.430;2023-08-24T05:14:40;17.30;99.90
35970;DHT22;22448;51.298;6.430;2023-08-24T05:17:07;17.30;99.90
35970;DHT22;22448;51.298;6.430;2023-08-24T05:19:34;17.30;99.90
35970;DHT22;22448;51.298;6.430;2023-08-24T05:22:01;17.30;99.90
35970;DHT22;22448;51.298;6.430;2023-08-24T05:24:29;17.30;99.90
35970;DHT22;22448;51.298;6.430;2023-08-24T05:26:56;17.30;99.90
35970;DHT22;22448;51.298;6.430;2023-08-24T05:29:23;17.40;99.90
35970;DHT22;22448;51.298;6.430;2023-08-24T05:31:50;17.40;99.90
35970;DHT22;22448;51.298;6.430;2023-08-24T05:34:17;17.30;99.90
35970;DHT22;22448;51.298;6.430;2023-08-24T05:36:44;17.40;99.90
35970;DHT22;22448;51.298;6.430;2023-08-24T05:39:11;17.40;99.90
35970;DHT22;22448;51.298;6.430;2023-08-24T05:41:38;17.40;99.90
35970;DHT22;22448;51.298;6.430;2023-08-24T05:44:05;17.40;99.90
35970;DHT22;22448;51.298;6.430;2023-08-24T05:46:32;17.50;99.90
35970;DHT22;22448;51.298;6.430;2023-08-24T05:48:59;17.50;99.90
35970;DHT22;22448;51.298;6.430;2023-08-24T05:51:27;17.50;99.90
35970;DHT22;22448;51.298;6.430;2023-08-24T05:53:54;17.50;99.90
35970;DHT22;22448;51.298;6.430;2023-08-24T05:56:25;17.60;99.90
35970;DHT22;22448;51.298;6.430;2023-08-24T05:58:54;17.60;99.90
35970;DHT22;22448;51.298;6.430;2023-08-24T06:01:21;17.70;99.90
35970;DHT22;22448;51.298;6.430;2023-08-24T06:03:49;17.90;99.90
35970;DHT22;22448;51.298;6.430;2023-08-24T06:06:17;18.10;99.90
35970;DHT22;22448;51.298;6.430;2023-08-24T06:08:44;18.30;99.90
35970;DHT22;22448;51.298;6.430;2023-08-24T06:11:11;19.30;99.90
35970;DHT22;22448;51.298;6.430;2023-08-24T06:13:38;21.00;99.90
35970;DHT22;22448;51.298;6.430;2023-08-24T06:16:05;23.00;99.90
35970;DHT22;22448;51.298;6.430;2023-08-24T06:18:32;24.70;99.90
35970;DHT22;22448;51.298;6.430;2023-08-24T06:20:59;25.70;99.90
35970;DHT22;22448;51.298;6.430;2023-08-24T06:23:26;25.50;99.90
35970;DHT22;22448;51.298;6.430;2023-08-24T06:25:53;25.70;99.90
35970;DHT22;22448;51.298;6.430;2023-08-24T06:28:20;26.30;99.90
35970;DHT22;22448;51.298;6.430;2023-08-24T06:30:47;27.10;99.90
35970;DHT22;22448;51.298;6.430;2023-08-24T06:33:17;27.50;99.90
35970;DHT22;22448;51.298;6.430;2023-08-24T06:35:44;28.50;99.90
35970;DHT22;22448;51.298;6.430;2023-08-24T06:38:11;29.70;99.90
35970;DHT22;22448;51.298;6.430;2023-08-24T06:40:39;30.00;99.90
35970;DHT22;22448;51.298;6.430;2023-08-24T06:43:06;30.80;99.90
35970;DHT22;22448;51.298;6.430;2023-08-24T06:45:33;30.40;99.90
35970;DHT22;22448;51.298;6.430;2023-08-24T06:48:00;31.30;99.30
35970;DHT22;22448;51.298;6.430;2023-08-24T06:50:27;31.40;98.40
35970;DHT22;22448;51.298;6.430;2023-08-24T06:52:54;32.20;98.70
35970;DHT22;22448;51.298;6.430;2023-08-24T06:55:22;32.30;97.10
35970;DHT22;22448;51.298;6.430;2023-08-24T06:57:49;32.40;97.20
35970;DHT22;22448;51.298;6.430;2023-08-24T07:00:19;32.80;96.20
35970;DHT22;22448;51.298;6.430;2023-08-24T07:02:51;32.80;95.60
35970;DHT22;22448;51.298;6.430;2023-08-24T07:05:18;32.70;95.30
35970;DHT22;22448;51.298;6.430;2023-08-24T07:07:46;33.20;95.10
35970;DHT22;22448;51.298;6.430;2023-08-24T07:10:15;33.50;95.00
35970;DHT22;22448;51.298;6.430;2023-08-24T07:12:42;33.70;94.80
35970;DHT22;22448;51.298;6.430;2023-08-24T07:15:12;32.60;95.20
35970;DHT22;22448;51.298;6.430;2023-08-24T07:17:39;31.30;95.60
35970;DHT22;22448;51.298;6.430;2023-08-24T07:20:07;30.00;98.20
35970;DHT22;22448;51.298;6.430;2023-08-24T07:22:35;31.10;98.80
35970;DHT22;22448;51.298;6.430;2023-08-24T07:25:02;31.80;97.00
35970;DHT22;22448;51.298;6.430;2023-08-24T07:27:32;32.00;96.40
35970;DHT22;22448;51.298;6.430;2023-08-24T07:30:01;32.20;95.90
35970;DHT22;22448;51.298;6.430;2023-08-24T07:32:41;32.50;96.50
35970;DHT22;22448;51.298;6.430;2023-08-24T07:35:08;32.40;94.90
35970;DHT22;22448;51.298;6.430;2023-08-24T07:37:36;32.20;95.20
35970;DHT22;22448;51.298;6.430;2023-08-24T07:40:03;30.80;96.20
35970;DHT22;22448;51.298;6.430;2023-08-24T07:42:43;30.10;97.60
35970;DHT22;22448;51.298;6.430;2023-08-24T07:45:10;30.60;97.40
35970;DHT22;22448;51.298;6.430;2023-08-24T07:47:39;30.80;98.30
35970;DHT22;22448;51.298;6.430;2023-08-24T07:50:07;31.40;97.70
35970;DHT22;22448;51.298;6.430;2023-08-24T07:52:35;31.60;96.70
35970;DHT22;22448;51.298;6.430;2023-08-24T07:55:03;32.00;96.30
35970;DHT22;22448;51.298;6.430;2023-08-24T07:57:31;32.20;97.40
35970;DHT22;22448;51.298;6.430;2023-08-24T07:59:58;31.00;96.90
35970;DHT22;22448;51.298;6.430;2023-08-24T08:02:26;29.60;97.60
35970;DHT22;22448;51.298;6.430;2023-08-24T08:04:57;28.40;99.90
35970;DHT22;22448;51.298;6.430;2023-08-24T08:07:26;27.40;99.90
35970;DHT22;22448;51.298;6.430;2023-08-24T08:09:54;26.80;99.90
35970;DHT22;22448;51.298;6.430;2023-08-24T08:12:21;26.60;99.90
35970;DHT22;22448;51.298;6.430;2023-08-24T08:14:48;26.60;99.90
35970;DHT22;22448;51.298;6.430;2023-08-24T08:17:14;26.30;99.90
35970;DHT22;22448;51.298;6.430;2023-08-24T08:19:42;26.40;99.90
35970;DHT22;22448;51.298;6.430;2023-08-24T08:22:09;25.90;99.90
35970;DHT22;22448;51.298;6.430;2023-08-24T08:24:36;25.70;99.90
35970;DHT22;22448;51.298;6.430;2023-08-24T08:27:03;25.90;99.90
35970;DHT22;22448;51.298;6.430;2023-08-24T08:29:31;26.10;99.90
35970;DHT22;22448;51.298;6.430;2023-08-24T08:31:58;26.60;99.90
35970;DHT22;22448;51.298;6.430;2023-08-24T08:34:25;26.80;99.90
35970;DHT22;22448;51.298;6.430;2023-08-24T08:36:52;27.00;99.90
35970;DHT22;22448;51.298;6.430;2023-08-24T08:39:19;27.00;99.90
35970;DHT22;22448;51.298;6.430;2023-08-24T08:41:49;27.10;99.90
35970;DHT22;22448;51.298;6.430;2023-08-24T08:44:16;26.80;99.90
35970;DHT22;22448;51.298;6.430;2023-08-24T08:46:43;26.60;99.90
35970;DHT22;22448;51.298;6.430;2023-08-24T08:49:12;26.50;99.90
35970;DHT22;22448;51.298;6.430;2023-08-24T08:51:42;26.50;99.90
35970;DHT22;22448;51.298;6.430;2023-08-24T08:54:10;26.50;99.90
35970;DHT22;22448;51.298;6.430;2023-08-24T08:56:37;26.90;99.90
35970;DHT22;22448;51.298;6.430;2023-08-24T08:59:07;26.60;99.90
35970;DHT22;22448;51.298;6.430;2023-08-24T09:01:35;26.70;99.90
35970;DHT22;22448;51.298;6.430;2023-08-24T09:04:02;26.90;99.90
35970;DHT22;22448;51.298;6.430;2023-08-24T09:06:30;26.70;99.90
35970;DHT22;22448;51.298;6.430;2023-08-24T09:08:57;26.80;99.90
35970;DHT22;22448;51.298;6.430;2023-08-24T09:11:24;26.80;99.90
35970;DHT22;22448;51.298;6.430;2023-08-24T09:13:51;26.80;99.90
35970;DHT22;22448;51.298;6.430;2023-08-24T09:16:18;26.80;99.90
35970;DHT22;22448;51.298;6.430;2023-08-24T09:18:47;26.80;99.90
35970;DHT22;22448;51.298;6.430;2023-08-24T09:21:15;26.50;99.90
35970;DHT22;22448;51.298;6.430;2023-08-24T09:24:01;26.50;99.90
35970;DHT22;22448;51.298;6.430;2023-08-24T09:26:29;26.60;99.90
35970;DHT22;22448;51.298;6.430;2023-08-24T09:28:57;26.60;99.90
35970;DHT22;22448;51.298;6.430;2023-08-24T09:31:35;26.40;99.90
35970;DHT22;22448;51.298;6.430;2023-08-24T09:34:04;26.10;99.90
35970;DHT22;22448;51.298;6.430;2023-08-24T09:36:32;26.30;99.90
35970;DHT22;22448;51.298;6.430;2023-08-24T09:39:00;26.40;99.90
35970;DHT22;22448;51.298;6.430;2023-08-24T09:41:41;26.50;99.90
35970;DHT22;22448;51.298;6.430;2023-08-24T09:44:08;26.70;99.90
35970;DHT22;22448;51.298;6.430;2023-08-24T09:46:36;26.70;99.90
35970;DHT22;22448;51.298;6.430;2023-08-24T09:49:09;26.60;99.90
35970;DHT22;22448;51.298;6.430;2023-08-24T09:51:38;26.80;99.90
35970;DHT22;22448;51.298;6.430;2023-08-24T09:54:08;27.20;99.90
35970;DHT22;22448;51.298;6.430;2023-08-24T09:56:46;27.30;99.90
35970;DHT22;22448;51.298;6.430;2023-08-24T09:59:16;27.50;99.90
35970;DHT22;22448;51.298;6.430;2023-08-24T10:01:49;27.70;99.90
35970;DHT22;22448;51.298;6.430;2023-08-24T10:04:29;27.70;99.90
35970;DHT22;22448;51.298;6.430;2023-08-24T10:07:03;27.70;99.90
35970;DHT22;22448;51.298;6.430;2023-08-24T10:09:38;27.60;99.90
35970;DHT22;22448;51.298;6.430;2023-08-24T10:12:07;27.60;99.90
35970;DHT22;22448;51.298;6.430;2023-08-24T10:14:51;27.70;99.90
35970;DHT22;22448;51.298;6.430;2023-08-24T10:17:21;27.80;99.90
35970;DHT22;22448;51.298;6.430;2023-08-24T10:19:51;27.90;99.90
35970;DHT22;22448;51.298;6.430;2023-08-24T10:22:22;27.90;99.90
35970;DHT22;22448;51.298;6.430;2023-08-24T10:24:49;27.90;99.90
35970;DHT22;22448;51.298;6.430;2023-08-24T10:27:18;27.80;99.90
35970;DHT22;22448;51.298;6.430;2023-08-24T10:29:46;27.70;99.90
35970;DHT22;22448;51.298;6.430;2023-08-24T10:32:14;27.80;99.90
35970;DHT22;22448;51.298;6.430;2023-08-24T10:34:42;27.80;99.90
35970;DHT22;22448;51.298;6.430;2023-08-24T10:37:10;27.80;99.90
35970;DHT22;22448;51.298;6.430;2023-08-24T10:39:45;27.70;99.90
35970;DHT22;22448;51.298;6.430;2023-08-24T10:42:13;27.60;99.90
35970;DHT22;22448;51.298;6.430;2023-08-24T10:44:45;27.40;99.90
35970;DHT22;22448;51.298;6.430;2023-08-24T10:47:22;27.50;99.90
35970;DHT22;22448;51.298;6.430;2023-08-24T10:52:24;27.60;99.90
35970;DHT22;22448;51.298;6.430;2023-08-24T10:54:52;27.40;99.90
35970;DHT22;22448;51.298;6.430;2023-08-24T10:57:21;27.50;99.90
35970;DHT22;22448;51.298;6.430;2023-08-24T11:00:06;27.50;99.90
35970;DHT22;22448;51.298;6.430;2023-08-24T11:02:50;27.50;99.90
35970;DHT22;22448;51.298;6.430;2023-08-24T11:07:57;27.50;99.90
35970;DHT22;22448;51.298;6.430;2023-08-24T11:10:34;27.40;99.90
35970;DHT22;22448;51.298;6.430;2023-08-24T11:13:06;27.30;99.90
35970;DHT22;22448;51.298;6.430;2023-08-24T11:15:46;27.30;99.90
35970;DHT22;22448;51.298;6.430;2023-08-24T11:21:03;27.10;99.90
35970;DHT22;22448;51.298;6.430;2023-08-24T11:23:31;27.00;99.90
35970;DHT22;22448;51.298;6.430;2023-08-24T11:25:59;26.90;99.90
35970;DHT22;22448;51.298;6.430;2023-08-24T11:28:28;26.80;99.90
35970;DHT22;22448;51.298;6.430;2023-08-24T11:30:57;26.70;99.90
35970;DHT22;22448;51.298;6.430;2023-08-24T11:33:34;26.70;99.90
35970;DHT22;22448;51.298;6.430;2023-08-24T11:36:03;26.80;99.90
35970;DHT22;22448;51.298;6.430;2023-08-24T11:38:40;26.80;99.90
35970;DHT22;22448;51.298;6.430;2023-08-24T11:41:15;26.90;99.90
35970;DHT22;22448;51.298;6.430;2023-08-24T11:43:43;27.00;99.90
35970;DHT22;22448;51.298;6.430;2023-08-24T11:46:11;27.10;99.90
35970;DHT22;22448;51.298;6.430;2023-08-24T11:48:39;27.20;99.90
35970;DHT22;22448;51.298;6.430;2023-08-24T11:51:13;27.20;99.90
35970;DHT22;22448;51.298;6.430;2023-08-24T11:53:49;27.20;99.90
35970;DHT22;22448;51.298;6.430;2023-08-24T11:56:16;27.10;99.90
35970;DHT22;22448;51.298;6.430;2023-08-24T11:58:48;27.00;99.90
35970;DHT22;22448;51.298;6.430;2023-08-24T12:01:17;26.90;99.90
35970;DHT22;22448;51.298;6.430;2023-08-24T12:03:45;26.70;99.90
35970;DHT22;22448;51.298;6.430;2023-08-24T12:06:14;26.50;99.90
35970;DHT22;22448;51.298;6.430;2023-08-24T12:08:42;26.30;99.90
35970;DHT22;22448;51.298;6.430;2023-08-24T12:11:12;26.10;99.90
35970;DHT22;22448;51.298;6.430;2023-08-24T12:16:14;25.50;99.90
35970;DHT22;22448;51.298;6.430;2023-08-24T12:18:54;25.30;99.90
35970;DHT22;22448;51.298;6.430;2023-08-24T12:21:22;25.00;99.90
35970;DHT22;22448;51.298;6.430;2023-08-24T12:23:59;24.80;99.90
35970;DHT22;22448;51.298;6.430;2023-08-24T12:26:27;24.60;99.90
35970;DHT22;22448;51.298;6.430;2023-08-24T12:28:59;24.50;99.90
35970;DHT22;22448;51.298;6.430;2023-08-24T12:31:27;24.30;99.90
35970;DHT22;22448;51.298;6.430;2023-08-24T12:34:08;24.30;99.90
35970;DHT22;22448;51.298;6.430;2023-08-24T12:36:37;24.20;99.90
35970;DHT22;22448;51.298;6.430;2023-08-24T12:39:06;24.20;99.90
35970;DHT22;22448;51.298;6.430;2023-08-24T12:41:34;24.30;99.90
35970;DHT22;22448;51.298;6.430;2023-08-24T12:44:02;24.40;99.90
35970;DHT22;22448;51.298;6.430;2023-08-24T12:46:33;24.60;99.90
35970;DHT22;22448;51.298;6.430;2023-08-24T12:48:59;24.80;99.90
35970;DHT22;22448;51.298;6.430;2023-08-24T12:51:26;24.90;99.90
35970;DHT22;22448;51.298;6.430;2023-08-24T12:53:53;25.10;99.90
35970;DHT22;22448;51.298;6.430;2023-08-24T12:56:20;25.20;99.90
35970;DHT22;22448;51.298;6.430;2023-08-24T12:58:47;25.30;99.90
35970;DHT22;22448;51.298;6.430;2023-08-24T13:01:14;25.50;99.90
35970;DHT22;22448;51.298;6.430;2023-08-24T13:03:41;25.60;99.90
35970;DHT22;22448;51.298;6.430;2023-08-24T13:06:09;25.70;99.90
35970;DHT22;22448;51.298;6.430;2023-08-24T13:09:11;25.70;99.90
35970;DHT22;22448;51.298;6.430;2023-08-24T13:11:40;25.70;99.90
35970;DHT22;22448;51.298;6.430;2023-08-24T13:14:07;25.70;99.90
35970;DHT22;22448;51.298;6.430;2023-08-24T13:16:34;25.70;99.90
35970;DHT22;22448;51.298;6.430;2023-08-24T13:19:01;25.70;99.90
35970;DHT22;22448;51.298;6.430;2023-08-24T13:21:27;25.70;99.90
35970;DHT22;22448;51.298;6.430;2023-08-24T13:23:55;25.70;99.90
35970;DHT22;22448;51.298;6.430;2023-08-24T13:26:22;25.80;99.90
35970;DHT22;22448;51.298;6.430;2023-08-24T13:28:52;25.80;99.90
35970;DHT22;22448;51.298;6.430;2023-08-24T13:31:19;25.80;99.90
35970;DHT22;22448;51.298;6.430;2023-08-24T13:33:46;25.80;99.90
35970;DHT22;22448;51.298;6.430;2023-08-24T13:36:14;25.80;99.90
35970;DHT22;22448;51.298;6.430;2023-08-24T13:38:43;25.90;99.90
35970;DHT22;22448;51.298;6.430;2023-08-24T13:41:10;25.80;99.90
35970;DHT22;22448;51.298;6.430;2023-08-24T13:43:37;25.70;99.90
35970;DHT22;22448;51.298;6.430;2023-08-24T13:46:06;25.60;99.90
35970;DHT22;22448;51.298;6.430;2023-08-24T13:48:33;25.60;99.90
35970;DHT22;22448;51.298;6.430;2023-08-24T13:51:01;25.40;99.90
35970;DHT22;22448;51.298;6.430;2023-08-24T13:53:28;25.30;99.90
35970;DHT22;22448;51.298;6.430;2023-08-24T13:55:55;25.20;99.90
35970;DHT22;22448;51.298;6.430;2023-08-24T13:58:22;25.20;99.90
35970;DHT22;22448;51.298;6.430;2023-08-24T14:00:57;25.10;99.90
35970;DHT22;22448;51.298;6.430;2023-08-24T14:03:24;25.10;99.90
35970;DHT22;22448;51.298;6.430;2023-08-24T14:05:58;25.00;99.90
35970;DHT22;22448;51.298;6.430;2023-08-24T14:08:25;24.80;99.90
35970;DHT22;22448;51.298;6.430;2023-08-24T14:10:52;24.60;99.90
35970;DHT22;22448;51.298;6.430;2023-08-24T14:13:20;24.50;99.90
35970;DHT22;22448;51.298;6.430;2023-08-24T14:15:50;24.50;99.90
35970;DHT22;22448;51.298;6.430;2023-08-24T14:18:18;24.40;99.90
35970;DHT22;22448;51.298;6.430;2023-08-24T14:20:47;24.30;99.90
35970;DHT22;22448;51.298;6.430;2023-08-24T14:23:14;24.30;99.90
35970;DHT22;22448;51.298;6.430;2023-08-24T14:25:41;24.20;99.90
35970;DHT22;22448;51.298;6.430;2023-08-24T14:28:08;24.10;99.90
35970;DHT22;22448;51.298;6.430;2023-08-24T14:30:38;24.00;99.90
35970;DHT22;22448;51.298;6.430;2023-08-24T14:33:05;24.00;99.90
35970;DHT22;22448;51.298;6.430;2023-08-24T14:35:32;24.00;99.90
35970;DHT22;22448;51.298;6.430;2023-08-24T14:38:00;23.90;99.90
35970;DHT22;22448;51.298;6.430;2023-08-24T14:40:27;23.80;99.90
35970;DHT22;22448;51.298;6.430;2023-08-24T14:42:54;23.80;99.90
35970;DHT22;22448;51.298;6.430;2023-08-24T14:45:22;23.60;99.90
35970;DHT22;22448;51.298;6.430;2023-08-24T14:47:49;23.50;99.90
35970;DHT22;22448;51.298;6.430;2023-08-24T14:50:16;23.40;99.90
35970;DHT22;22448;51.298;6.430;2023-08-24T14:52:44;23.30;99.90
35970;DHT22;22448;51.298;6.430;2023-08-24T14:55:12;23.10;99.90
35970;DHT22;22448;51.298;6.430;2023-08-24T14:57:40;23.10;99.90
35970;DHT22;22448;51.298;6.430;2023-08-24T15:00:07;22.90;99.90
35970;DHT22;22448;51.298;6.430;2023-08-24T15:02:37;22.80;99.90
35970;DHT22;22448;51.298;6.430;2023-08-24T15:05:04;22.70;99.90
35970;DHT22;22448;51.298;6.430;2023-08-24T15:07:31;22.60;99.90
35970;DHT22;22448;51.298;6.430;2023-08-24T15:09:59;22.50;99.90
35970;DHT22;22448;51.298;6.430;2023-08-24T15:12:25;22.50;99.90
35970;DHT22;22448;51.298;6.430;2023-08-24T15:15:00;22.40;99.90
35970;DHT22;22448;51.298;6.430;2023-08-24T15:17:29;22.30;99.90
35970;DHT22;22448;51.298;6.430;2023-08-24T15:19:57;22.30;99.90
35970;DHT22;22448;51.298;6.430;2023-08-24T15:22:24;22.20;99.90
35970;DHT22;22448;51.298;6.430;2023-08-24T15:24:56;22.20;99.90
35970;DHT22;22448;51.298;6.430;2023-08-24T15:27:24;22.10;99.90
35970;DHT22;22448;51.298;6.430;2023-08-24T15:29:51;22.00;99.90
35970;DHT22;22448;51.298;6.430;2023-08-24T15:32:18;22.00;99.90
35970;DHT22;22448;51.298;6.430;2023-08-24T15:34:46;21.90;99.90
35970;DHT22;22448;51.298;6.430;2023-08-24T15:37:13;21.80;99.90
35970;DHT22;22448;51.298;6.430;2023-08-24T15:39:41;21.80;99.90
35970;DHT22;22448;51.298;6.430;2023-08-24T15:42:08;21.70;99.90
35970;DHT22;22448;51.298;6.430;2023-08-24T15:44:35;21.60;99.90
35970;DHT22;22448;51.298;6.430;2023-08-24T15:47:02;21.60;99.90
35970;DHT22;22448;51.298;6.430;2023-08-24T15:49:29;21.50;99.90
35970;DHT22;22448;51.298;6.430;2023-08-24T15:51:56;21.40;99.90
35970;DHT22;22448;51.298;6.430;2023-08-24T15:54:23;21.40;99.90